Lake Levels
Share |
Lake Levels
LAKES RIVERS MARINAS NEWS HOUSES EVENTS CLASSIFIEDS MAPS
1,637 Lakes:
Lake Store

Lake Levels

LakeLevels.info is a national information and alert service for lake water levels in the United States. With a FREE member account you can receive water level alerts by email when the water level reaches your desired alert level.


We currently offer Lake Level information and alerts for 90 lakes and serve 9,024 members with 22,396 alerts.


Sign-up for a Lake Level Alert




Filter By State:
Lake Name Current
Level
Full Pool +/-
Full Pool
Reading
Date - Time
Alan Henry (TX) 2,201.83 2,224.00 -22.17 9/15/2014  2:30:00 PM
Amistad (TX) 1,076.44 1,117.00 -40.56 9/15/2014  4:15:00 PM
Amon Carter (TX) 912.64 920.00 -7.36 9/15/2014  2:00:00 PM
Aquilla (TX) 536.08 537.50 -1.42 9/15/2014  9:30:00 AM
Arlington (TX) 544.26 550.00 -5.74 9/15/2014  12:00:00 AM
Athens (TX) 438.63 440.00 -1.37 9/15/2014  12:30:00 PM
Austin (TX) 492.13 492.80 -0.67 9/15/2014  10:05:00 AM
Bardwell (TX) 419.43 421.00 -1.57 9/15/2014  5:30:00 PM
Belton (TX) 582.83 594.00 -11.17 9/15/2014  5:00:00 PM
Benbrook (TX) 685.82 694.00 -8.18 9/15/2014  5:00:00 PM
Bob Sandlin (TX) 335.37 337.50 -2.13 9/15/2014  9:50:00 AM
Bonham (TX) 562.27 565.00 -2.73 9/15/2014  9:00:00 AM
Brady Creek (TX) 1,727.50 1,743.00 -15.50 9/15/2014  2:45:00 PM
Bridgeport (TX) 812.80 836.00 -23.20 9/15/2014  4:00:00 PM
Brownwood (TX) 1,412.11 1,425.00 -12.89 9/15/2014  6:30:00 PM
Buchanan (TX) 986.74 1,020.50 -33.76 9/15/2014  10:05:00 AM
Caddo (LA TX) 168.30 168.50 -0.20 9/15/2014  8:00:00 AM
Canyon (TX) 897.89 909.00 -11.11 9/15/2014  6:15:00 PM
Cedar Creek (TX) 317.00 ??? 9/15/2014  6:45:00 PM
Champion Creek (TX) 2,035.65 2,083.00 -47.35 9/15/2014  10:37:00 AM
Cherokee (TX) 277.85 280.00 -2.15 9/15/2014  7:00:00 AM
Choke Canyon (TX) 193.54 220.50 -26.96 9/15/2014  7:30:00 AM
Cisco (TX) 1,503.07 1,520.00 -16.93 9/15/2014  11:30:00 PM
Coleman (TX) 1,699.01 1,718.00 -18.99 9/15/2014  5:30:00 PM
Coleto Creek (TX) 94.36 98.28 -3.92 9/15/2014  5:00:00 PM
Colorado City (TX) 2,047.88 2,070.20 -22.32 9/15/2014  10:37:00 AM
Conroe (TX) 200.21 201.00 -0.79 9/15/2014  5:45:00 PM
Corpus Christi (TX) 86.80 94.00 -7.20 9/15/2014  9:59:00 AM
E. V. Spence (TX) 1,820.56 1,898.00 -77.44 9/15/2014  5:00:00 PM
Eagle Mountain (TX) 639.68 649.00 -9.32 9/15/2014  5:45:00 PM
Falcon (TX) 267.80 301.20 -33.40 9/15/2014  10:05:00 AM
Fork (TX) 397.71 403.00 -5.29 9/15/2014  5:30:00 PM
Georgetown (TX) 774.85 791.00 -16.15 9/15/2014  4:00:00 PM
Graham (TX) 1,061.31 1,075.00 -13.69 9/15/2014  6:00:00 PM
Granbury (TX) 685.06 693.00 -7.94 9/15/2014  12:30:00 PM
Granger (TX) 503.30 504.00 -0.70 9/15/2014  10:00:00 AM
Grapevine (TX) 523.93 535.00 -11.07 9/15/2014  8:45:00 AM
Hords Creek (TX) 1,885.22 1,900.00 -14.78 9/15/2014  5:30:00 AM
Houston (TX) 42.12 41.70 0.42 9/15/2014  6:30:00 PM
Hubbard Creek (TX) 1,154.85 1,183.00 -28.15 9/15/2014  5:15:00 PM
Hubert M Moss (TX) 711.40 715.00 -3.60 9/15/2014  12:15:00 AM
Inks (TX) 886.91 886.90 0.01 9/15/2014  6:00:00 PM
Jacksonville (TX) 420.93 422.00 -1.07 9/15/2014  9:50:00 AM
JB Thomas (TX) 2,204.80 2,258.00 -53.20 9/15/2014  6:45:00 PM
Jim Chapman (TX) 429.59 440.00 -10.41 9/15/2014  9:50:00 AM
Joe Pool (TX) 520.69 522.00 -1.31 9/15/2014  5:00:00 PM
Lake O' the Pines (TX) 228.78 228.50 0.28 9/15/2014  9:50:00 AM
Lavon (TX) 479.75 492.00 -12.25 9/15/2014  11:00:00 AM
Leon (TX) 1,368.07 ??? 9/15/2014  6:45:00 PM
Lewisville (TX) 515.74 522.00 -6.26 9/15/2014  6:30:00 PM
Limestone (TX) 361.56 363.00 -1.44 9/15/2014  4:45:00 PM
Livingston (TX) 130.43 131.00 -0.57 9/15/2014  6:15:00 PM
Lyndon B. Johnson (TX) 824.61 825.00 -0.39 9/15/2014  10:05:00 AM
MacKenzie (TX) 3,010.21 3,100.00 -89.79 9/15/2014  12:30:00 PM
Marble Falls (TX) 736.29 737.00 -0.71 9/15/2014  10:05:00 AM
Martin Creek (TX) 304.54 306.00 -1.46 9/15/2014  4:30:00 PM
Medina (TX) 976.75 1,062.00 -85.25 9/15/2014  6:00:00 PM
Meredith (TX) 2,857.44 2,941.00 -83.56 9/15/2014  5:30:00 PM
Mexia (TX) 446.70 448.30 -1.60 9/15/2014  5:15:00 PM
Mineral Wells (TX) 855.52 863.00 -7.48 9/15/2014  11:30:00 PM
Moss Creek (TX) 2,331.46 2,337.00 -5.54 9/15/2014  4:45:00 PM
Murvaul (TX) 264.82 265.50 -0.68 9/15/2014  9:50:00 AM
Nacogdoches (TX) 277.74 279.00 -1.26 9/15/2014  9:50:00 AM
Natural Dam Salt (TX) 2,447.33 2,457.00 -9.67 9/15/2014  10:37:00 AM
Nocona (TX) 814.45 827.00 -12.55 9/15/2014  12:00:00 AM
O.H. Ivie (TX) 1,510.58 1,551.50 -40.92 9/15/2014  5:15:00 PM
Palestine (TX) 344.20 345.00 -0.80 9/15/2014  9:50:00 AM
Palo Pinto (TX) 850.31 867.00 -16.69 9/15/2014  4:15:00 PM
Pat Cleburne (TX) 728.39 733.60 -5.21 9/15/2014  5:00:00 PM
Pat Mayse (TX) 448.75 451.00 -2.25 9/15/2014  9:50:00 AM
Possum Kingdom (TX) 983.82 1,000.00 -16.18 9/15/2014  9:28:00 AM
Proctor (TX) 1,149.89 1,162.00 -12.11 9/15/2014  2:30:00 PM
Ray Hubbard (TX) 426.12 435.50 -9.38 9/15/2014  9:30:00 AM
Ray Roberts (TX) 625.83 632.50 -6.67 9/15/2014  3:15:00 AM
Red Bluff (TX) 2,816.54 2,827.13 -10.59 9/15/2014  10:37:00 AM
Richland Chambers (TX) 305.99 315.00 -9.01 9/15/2014  9:28:00 AM
Sam Rayburn (TX) 162.85 164.40 -1.55 9/15/2014  6:00:00 PM
Somerville (TX) 237.38 238.00 -0.62 9/15/2014  4:00:00 AM
Tawakoni (TX) 426.83 437.50 -10.67 9/15/2014  5:30:00 PM
Texana (TX) 41.24 44.00 -2.76 9/15/2014  6:00:00 PM
Texoma (TX) 611.38 617.00 -5.62 9/15/2014  5:00:00 PM
Toledo Bend (TX LA) 170.51 172.00 -1.49 9/15/2014  6:30:00 PM
Travis (TX) 622.72 681.00 -58.28 9/15/2014  6:00:00 PM
Twin Buttes (TX) 1,894.43 1,940.00 -45.57 9/15/2014  12:00:00 AM
Tyler (TX) 374.50 375.50 -1.00 9/15/2014  9:50:00 AM
Waco (TX) 459.90 462.00 -2.10 9/15/2014  12:15:00 PM
White River (TX) 2,342.72 ??? 9/15/2014  4:15:00 PM
Whitney (TX) 523.65 533.00 -9.35 9/15/2014  1:15:00 PM
Worth (TX) 590.51 594.00 -3.49 9/15/2014  6:00:00 PM
Wright Patman (TX) 225.40 220.60 4.80 9/15/2014  9:50:00 AM


Current Daily Streamflow Conditions
High
90th percentile
75th - 89th percentile
25th - 74th percentile
10th - 24th percentile
10th percentile
Low
Not ranked

The colored dots on this map depict streamflow conditions as a percentile, which is computed from the period of record for the current day of the year. Only stations with at least 30 years of record are used. The gray circles indicate other stations that were not ranked in percentiles either because they have fewer than 30 years of record or because they report parameters other than streamflow. Some stations, for example, measure stage only.
TX Daily Streamflow Conditions



U.S. Drought Monitor